Time;durP1;ratioP1;P1;durP2;ratioP2;P2;SDS_P1;SDS_P2;PMS_P1;PMS_P2;Temp;Humidity;BMP_temperature;BMP_pressure;BME280_temperature;BME280_humidity;BME280_pressure;Samples;Min_cycle;Max_cycle;Signal;HPM_P1;HPM_P2
2021/08/05 00:00:45;;;;;;;;;;;;;;;27.78;45.01;100358.27;1752203;80;22154;-40
2021/08/05 00:03:12;;;;;;;;;;;;;;;27.79;45.06;100355.69;1745409;80;20294;-39
2021/08/05 00:05:38;;;;;;;;;;;;;;;27.77;45.13;100356.06;1757580;80;20182;-40
2021/08/05 00:08:05;;;;;;;;;;;;;;;27.79;45.18;100357.90;1749021;80;20774;-40
2021/08/05 00:10:31;;;;;;;;;;;;;;;27.81;45.23;100354.12;1750746;80;20430;-39
2021/08/05 00:12:57;;;;;;;;;;;;;;;27.81;45.27;100350.52;1755934;80;21175;-40
2021/08/05 00:15:23;;;;;;;;;;;;;;;27.81;45.33;100352.72;1711321;81;21164;-40
2021/08/05 00:17:49;;;;;;;;;;;;;;;27.81;45.38;100339.33;1720646;82;20267;-40
2021/08/05 00:20:15;;;;;;;;;;;;;;;27.82;45.42;100350.15;1709717;83;20185;-40
2021/08/05 00:22:41;;;;;;;;;;;;;;;27.83;45.45;100346.77;1698668;83;20262;-40
2021/08/05 00:25:08;;;;;;;;;;;;;;;27.83;45.50;100357.36;1722636;81;21089;-40
2021/08/05 00:27:35;;;;;;;;;;;;;;;27.85;45.55;100359.17;1716885;81;20195;-40
2021/08/05 00:30:01;;;;;;;;;;;;;;;27.84;45.58;100350.56;1726456;81;20184;-40
2021/08/05 00:32:27;;;;;;;;;;;;;;;27.85;45.62;100354.16;1723079;81;20176;-40
2021/08/05 00:34:53;;;;;;;;;;;;;;;27.86;45.67;100359.39;1730587;81;20207;-40
2021/08/05 00:37:19;;;;;;;;;;;;;;;27.86;45.70;100362.77;1717768;81;20769;-40
2021/08/05 00:39:45;;;;;;;;;;;;;;;27.86;45.72;100363.59;1723840;81;21710;-40
2021/08/05 00:42:11;;;;;;;;;;;;;;;27.86;45.76;100364.98;1725306;81;20186;-40
2021/08/05 00:44:37;;;;;;;;;;;;;;;27.87;45.79;100359.61;1723981;81;20165;-40
2021/08/05 00:47:06;;;;;;;;;;;;;;;27.87;45.82;100363.80;1717038;81;20149;-40
2021/08/05 00:49:32;;;;;;;;;;;;;;;27.88;45.86;100357.00;1730199;81;21124;-39
2021/08/05 00:51:58;;;;;;;;;;;;;;;27.88;45.90;100359.02;1719800;81;20692;-40
2021/08/05 00:54:24;;;;;;;;;;;;;;;27.89;45.90;100355.83;1721538;81;20176;-40
2021/08/05 00:56:49;;;;;;;;;;;;;;;27.90;45.96;100350.45;1721508;81;20199;-40
2021/08/05 00:59:15;;;;;;;;;;;;;;;27.89;45.97;100354.44;1729186;81;20758;-40
2021/08/05 01:01:46;;;;;;;;;;;;;;;27.92;46.01;100350.09;1707009;82;21841;-40
2021/08/05 01:04:13;;;;;;;;;;;;;;;27.91;46.02;100343.69;1715254;82;20675;-40
2021/08/05 01:06:58;;;;;;;;;;;;;;;27.92;46.06;100349.47;1714878;82;20213;-40
2021/08/05 01:09:34;;;;;;;;;;;;;;;27.92;46.09;100349.47;1709000;82;20436;-40
2021/08/05 01:12:18;;;;;;;;;;;;;;;27.93;46.11;100352.48;1705051;82;20326;-41
2021/08/05 01:14:45;;;;;;;;;;;;;;;27.93;46.14;100349.69;1715423;82;20959;-40
2021/08/05 01:17:11;;;;;;;;;;;;;;;27.93;46.18;100341.89;1696599;82;20490;-39
2021/08/05 01:19:54;;;;;;;;;;;;;;;27.93;46.20;100339.91;1728398;82;20195;-39
2021/08/05 01:22:32;;;;;;;;;;;;;;;27.94;46.23;100348.52;1712031;82;20737;-39
2021/08/05 01:25:05;;;;;;;;;;;;;;;27.93;46.25;100341.30;1692369;82;20292;-39
2021/08/05 01:27:31;;;;;;;;;;;;;;;27.95;46.28;100348.73;1710075;82;21318;-39
2021/08/05 01:29:57;;;;;;;;;;;;;;;27.95;46.29;100345.13;1689308;83;20833;-39
2021/08/05 01:32:22;;;;;;;;;;;;;;;27.95;46.31;100347.92;1707158;81;20199;-39
2021/08/05 01:34:48;;;;;;;;;;;;;;;27.95;46.33;100344.55;1707571;82;20804;-40
2021/08/05 01:37:14;;;;;;;;;;;;;;;27.96;46.38;100339.76;1714046;82;20164;-39
2021/08/05 01:39:40;;;;;;;;;;;;;;;27.96;46.42;100332.77;1721325;82;21133;-42
2021/08/05 01:42:06;;;;;;;;;;;;;;;27.97;46.43;100331.56;1705151;82;20141;-39
2021/08/05 01:44:32;;;;;;;;;;;;;;;27.96;46.45;100329.97;1719525;82;20200;-40
2021/08/05 01:46:58;;;;;;;;;;;;;;;27.97;46.51;100330.16;1713836;82;20671;-39
2021/08/05 01:49:24;;;;;;;;;;;;;;;27.98;46.54;100345.77;1714410;82;20619;-39
2021/08/05 01:51:50;;;;;;;;;;;;;;;27.97;46.55;100340.76;1741934;80;21274;-39
2021/08/05 01:54:16;;;;;;;;;;;;;;;27.98;46.60;100342.97;1747100;80;20142;-39
2021/08/05 01:56:41;;;;;;;;;;;;;;;27.99;46.67;100344.59;1753323;80;20781;-39
2021/08/05 01:59:07;;;;;;;;;;;;;;;27.98;46.69;100333.98;1737561;81;20812;-39
2021/08/05 02:01:33;;;;;;;;;;;;;;;27.98;46.76;100339.58;1723179;81;20252;-40
2021/08/05 02:04:06;;;;;;;;;;;;;;;27.98;46.80;100336.78;1687735;83;21180;-39
2021/08/05 02:06:35;;;;;;;;;;;;;;;27.99;46.85;100337.00;1705937;82;20841;-39
2021/08/05 02:09:16;;;;;;;;;;;;;;;28.00;46.93;100333.03;1714571;83;20393;-39
2021/08/05 02:11:44;;;;;;;;;;;;;;;27.99;46.98;100330.02;1705156;83;20138;-39
2021/08/05 02:14:10;;;;;;;;;;;;;;;28.00;47.05;100328.84;1741861;80;20233;-39
2021/08/05 02:16:38;;;;;;;;;;;;;;;27.99;47.10;100335.61;1743336;80;23348;-39
2021/08/05 02:19:04;;;;;;;;;;;;;;;28.00;47.17;100328.03;1754652;80;20197;-39
2021/08/05 02:21:30;;;;;;;;;;;;;;;27.99;47.21;100334.21;1732580;80;20802;-40
2021/08/05 02:23:57;;;;;;;;;;;;;;;28.00;47.25;100326.05;1745486;80;20173;-39
2021/08/05 02:26:23;;;;;;;;;;;;;;;28.00;47.31;100323.25;1742149;80;21169;-39
2021/08/05 02:28:49;;;;;;;;;;;;;;;28.00;47.35;100325.23;1742718;80;22103;-39
2021/08/05 02:31:15;;;;;;;;;;;;;;;28.01;47.40;100330.42;1720131;82;20190;-39
2021/08/05 02:33:40;;;;;;;;;;;;;;;28.00;47.43;100326.05;1737925;80;20323;-39
2021/08/05 02:36:06;;;;;;;;;;;;;;;28.01;47.49;100333.81;1750935;80;20240;-39
2021/08/05 02:38:32;;;;;;;;;;;;;;;28.00;47.54;100342.81;1740463;80;20769;-39
2021/08/05 02:40:58;;;;;;;;;;;;;;;28.00;47.61;100341.42;1737487;80;20994;-39
2021/08/05 02:43:25;;;;;;;;;;;;;;;28.02;47.62;100338.23;1738866;80;20187;-39
2021/08/05 02:45:52;;;;;;;;;;;;;;;28.00;47.68;100344.22;1740659;80;20147;-39
2021/08/05 02:48:18;;;;;;;;;;;;;;;28.01;47.74;100345.00;1736720;80;20241;-39
2021/08/05 02:50:45;;;;;;;;;;;;;;;28.01;47.80;100343.59;1736844;80;20149;-39
2021/08/05 02:53:11;;;;;;;;;;;;;;;28.00;47.82;100341.42;1746735;80;21233;-39
2021/08/05 02:55:37;;;;;;;;;;;;;;;28.00;47.88;100349.81;1741490;80;20396;-40
2021/08/05 02:58:03;;;;;;;;;;;;;;;28.00;47.92;100349.81;1748567;80;20182;-39
2021/08/05 03:00:28;;;;;;;;;;;;;;;28.01;47.97;100351.98;1742570;80;20158;-40
2021/08/05 03:02:54;;;;;;;;;;;;;;;28.01;48.01;100353.38;1759741;80;20840;-39
2021/08/05 03:05:20;;;;;;;;;;;;;;;28.00;48.06;100361.59;1751350;80;21891;-39
2021/08/05 03:07:46;;;;;;;;;;;;;;;28.01;48.10;100357.58;1753602;80;20198;-39
2021/08/05 03:10:14;;;;;;;;;;;;;;;28.01;48.12;100363.17;1747002;80;20216;-39
2021/08/05 03:12:40;;;;;;;;;;;;;;;28.00;48.18;100347.60;1749266;80;20205;-39
2021/08/05 03:15:07;;;;;;;;;;;;;;;28.01;48.19;100355.59;1748606;80;20391;-39
2021/08/05 03:17:33;;;;;;;;;;;;;;;28.01;48.22;100356.99;1755278;80;21133;-39
2021/08/05 03:19:59;;;;;;;;;;;;;;;28.01;48.25;100351.40;1760114;80;20450;-39
2021/08/05 03:22:25;;;;;;;;;;;;;;;28.00;48.29;100347.02;1721537;81;20215;-41
2021/08/05 03:24:51;;;;;;;;;;;;;;;28.00;48.33;100340.61;1754994;80;20173;-39
2021/08/05 03:27:17;;;;;;;;;;;;;;;28.01;48.37;100340.80;1750453;80;20250;-40
2021/08/05 03:29:42;;;;;;;;;;;;;;;28.01;48.38;100333.22;1755046;80;21205;-40
2021/08/05 03:32:08;;;;;;;;;;;;;;;28.00;48.42;100331.63;1752844;80;20189;-39
2021/08/05 03:34:34;;;;;;;;;;;;;;;28.00;48.46;100335.02;1721985;81;20210;-40
2021/08/05 03:37:00;;;;;;;;;;;;;;;28.01;48.50;100331.02;1753494;80;20163;-40
2021/08/05 03:39:26;;;;;;;;;;;;;;;28.01;48.55;100325.42;1756926;80;20201;-39
2021/08/05 03:41:53;;;;;;;;;;;;;;;28.00;48.58;100327.44;1746120;80;21161;-40
2021/08/05 03:44:19;;;;;;;;;;;;;;;28.00;48.61;100331.63;1758995;80;20097;-39
2021/08/05 03:46:45;;;;;;;;;;;;;;;28.01;48.64;100340.22;1756487;80;20198;-40
2021/08/05 03:49:10;;;;;;;;;;;;;;;28.01;48.66;100338.00;1749388;80;20230;-39
2021/08/05 03:51:36;;;;;;;;;;;;;;;28.01;48.68;100335.21;1753520;80;20229;-39
2021/08/05 03:54:03;;;;;;;;;;;;;;;28.01;48.71;100337.41;1730170;81;21085;-40
2021/08/05 03:56:29;;;;;;;;;;;;;;;28.01;48.71;100329.61;1721934;81;20207;-39
2021/08/05 03:58:54;;;;;;;;;;;;;;;28.01;48.76;100337.41;1720448;81;20222;-39
2021/08/05 04:01:20;;;;;;;;;;;;;;;28.02;48.76;100337.64;1716611;81;20219;-39
2021/08/05 04:03:46;;;;;;;;;;;;;;;28.01;48.77;100331.83;1711070;81;20842;-39
2021/08/05 04:06:12;;;;;;;;;;;;;;;28.01;48.81;100330.42;1720029;81;23281;-39
2021/08/05 04:08:38;;;;;;;;;;;;;;;28.01;48.83;100329.03;1696115;82;20266;-39
2021/08/05 04:11:04;;;;;;;;;;;;;;;28.01;48.88;100323.44;1725461;82;20169;-39
2021/08/05 04:13:30;;;;;;;;;;;;;;;28.02;48.91;100318.65;1718756;82;20449;-39
2021/08/05 04:15:56;;;;;;;;;;;;;;;28.01;48.90;100317.84;1714786;82;20199;-39
2021/08/05 04:18:22;;;;;;;;;;;;;;;28.02;48.93;100321.45;1712179;82;21000;-39
2021/08/05 04:20:48;;;;;;;;;;;;;;;28.03;48.93;100318.87;1751347;80;20126;-39
2021/08/05 04:23:14;;;;;;;;;;;;;;;28.03;48.92;100314.67;1758689;80;20279;-39
2021/08/05 04:25:40;;;;;;;;;;;;;;;28.03;48.94;100320.27;1749514;80;20689;-39
2021/08/05 04:28:06;;;;;;;;;;;;;;;28.02;48.95;100318.06;1749490;80;20176;-40
2021/08/05 04:30:32;;;;;;;;;;;;;;;28.04;48.96;100326.08;1757728;80;23226;-40
2021/08/05 04:32:58;;;;;;;;;;;;;;;28.02;48.98;100320.86;1748842;80;20189;-39
2021/08/05 04:35:24;;;;;;;;;;;;;;;28.03;48.99;100328.07;1749034;80;20193;-39
2021/08/05 04:37:59;;;;;;;;;;;;;;;28.03;49.00;100317.47;1752430;80;20203;-40
2021/08/05 04:40:27;;;;;;;;;;;;;;;28.04;49.03;100323.28;1747349;80;20187;-41
2021/08/05 04:42:53;;;;;;;;;;;;;;;28.04;49.09;100318.50;1751376;80;21756;-40
2021/08/05 04:45:19;;;;;;;;;;;;;;;28.03;49.14;100315.48;1752781;80;20150;-42
2021/08/05 04:47:54;;;;;;;;;;;;;;;28.05;49.18;100317.30;1749437;80;20231;-38
2021/08/05 04:50:20;;;;;;;;;;;;;;;28.04;49.24;100316.30;1747890;80;20182;-40
2021/08/05 04:52:46;;;;;;;;;;;;;;;28.05;49.28;100322.11;1755333;80;20276;-41
2021/08/05 04:55:12;;;;;;;;;;;;;;;28.05;49.28;100319.31;1729912;82;21125;-41
2021/08/05 04:57:47;;;;;;;;;;;;;;;28.06;49.30;100318.10;1751682;80;20811;-39
2021/08/05 05:00:13;;;;;;;;;;;;;;;28.06;49.29;100318.91;1755996;80;20423;-40
2021/08/05 05:02:40;;;;;;;;;;;;;;;28.06;49.28;100328.70;1750317;80;20186;-40
2021/08/05 05:05:06;;;;;;;;;;;;;;;28.06;49.30;100316.70;1743342;80;20214;-42
2021/08/05 05:07:34;;;;;;;;;;;;;;;28.06;49.38;100317.52;1750920;80;21213;-41
2021/08/05 05:10:00;;;;;;;;;;;;;;;28.08;49.41;100328.33;1746833;80;20488;-40
2021/08/05 05:12:25;;;;;;;;;;;;;;;28.08;49.45;100319.94;1745507;80;20205;-41
2021/08/05 05:14:51;;;;;;;;;;;;;;;28.08;49.42;100316.55;1747550;80;20219;-42
2021/08/05 05:17:17;;;;;;;;;;;;;;;28.08;49.43;100323.55;1747619;80;20175;-39
2021/08/05 05:19:43;;;;;;;;;;;;;;;28.09;49.41;100326.56;1753552;80;21180;-39
2021/08/05 05:22:09;;;;;;;;;;;;;;;28.10;49.44;100315.59;1746591;80;20824;-39
2021/08/05 05:24:35;;;;;;;;;;;;;;;28.11;49.43;100317.80;1740304;80;20188;-39
2021/08/05 05:27:01;;;;;;;;;;;;;;;28.11;49.45;100315.01;1743741;80;22122;-40
2021/08/05 05:29:27;;;;;;;;;;;;;;;28.09;49.41;100315.97;1743853;80;20549;-39
2021/08/05 05:31:54;;;;;;;;;;;;;;;28.05;49.36;100313.72;1744061;80;21171;-44
2021/08/05 05:34:20;;;;;;;;;;;;;;;28.02;49.31;100311.66;1746655;80;20161;-40
2021/08/05 05:36:47;;;;;;;;;;;;;;;27.97;49.23;100313.39;1739724;80;20170;-39
2021/08/05 05:39:13;;;;;;;;;;;;;;;27.92;49.17;100308.93;1739942;80;20192;-40
2021/08/05 05:41:39;;;;;;;;;;;;;;;27.88;49.10;100308.08;1741779;80;20233;-40
2021/08/05 05:44:05;;;;;;;;;;;;;;;27.83;49.01;100303.44;1741862;80;21937;-40
2021/08/05 05:46:31;;;;;;;;;;;;;;;27.79;48.96;100306.19;1740568;80;20218;-39
2021/08/05 05:48:57;;;;;;;;;;;;;;;27.76;48.91;100305.52;1739923;80;20224;-39
2021/08/05 05:51:23;;;;;;;;;;;;;;;27.73;48.82;100304.89;1740088;80;20167;-39
2021/08/05 05:53:49;;;;;;;;;;;;;;;27.70;48.73;100297.27;1746284;80;20204;-39
2021/08/05 05:56:15;;;;;;;;;;;;;;;27.67;48.63;100302.20;1745643;80;21130;-40
2021/08/05 05:58:41;;;;;;;;;;;;;;;27.64;48.52;100293.98;1739765;80;20150;-39
2021/08/05 06:01:07;;;;;;;;;;;;;;;27.61;48.40;100291.95;1743597;80;20193;-39
2021/08/05 06:03:33;;;;;;;;;;;;;;;27.58;48.30;100299.67;1749312;80;20211;-39
2021/08/05 06:05:59;;;;;;;;;;;;;;;27.56;48.18;100304.05;1757232;80;20180;-39
2021/08/05 06:08:25;;;;;;;;;;;;;;;27.55;48.06;100299.62;1753563;80;21054;-39
2021/08/05 06:10:51;;;;;;;;;;;;;;;27.52;47.95;100300.39;1745848;80;20784;-39
2021/08/05 06:13:17;;;;;;;;;;;;;;;27.49;47.81;100300.56;1750500;80;20167;-39
2021/08/05 06:15:43;;;;;;;;;;;;;;;27.46;47.68;100293.47;1749585;80;20179;-39
2021/08/05 06:18:09;;;;;;;;;;;;;;;27.44;47.55;100291.66;1748346;80;20161;-40
2021/08/05 06:20:34;;;;;;;;;;;;;;;27.42;47.43;100286.44;1760276;80;21194;-39
2021/08/05 06:23:03;;;;;;;;;;;;;;;27.39;47.31;100284.41;1750686;80;20191;-39
2021/08/05 06:25:28;;;;;;;;;;;;;;;27.37;47.19;100284.58;1750949;80;20209;-39
2021/08/05 06:27:54;;;;;;;;;;;;;;;27.35;47.07;100286.94;1739689;80;20184;-40
2021/08/05 06:30:20;;;;;;;;;;;;;;;27.32;46.95;100273.14;1756176;80;20193;-39
2021/08/05 06:32:48;;;;;;;;;;;;;;;27.30;46.82;100278.87;1756899;80;21051;-39
2021/08/05 06:35:14;;;;;;;;;;;;;;;27.28;46.73;100266.70;1747460;80;20315;-39
2021/08/05 06:37:40;;;;;;;;;;;;;;;27.26;46.62;100266.25;1740197;80;20254;-39
2021/08/05 06:40:07;;;;;;;;;;;;;;;27.22;46.49;100257.82;1754066;80;20173;-39
2021/08/05 06:42:34;;;;;;;;;;;;;;;27.20;46.39;100251.79;1745004;80;20204;-41
2021/08/05 06:45:00;;;;;;;;;;;;;;;27.18;46.27;100251.96;1750392;80;21117;-39
2021/08/05 06:47:26;;;;;;;;;;;;;;;27.15;46.16;100247.95;1749686;80;20468;-39
2021/08/05 06:49:52;;;;;;;;;;;;;;;27.13;46.05;100235.52;1747760;80;20133;-40
2021/08/05 06:52:19;;;;;;;;;;;;;;;27.11;45.96;100232.31;1747876;80;20141;-39
2021/08/05 06:54:45;;;;;;;;;;;;;;;27.09;45.84;100230.48;1750167;80;20147;-39
2021/08/05 06:57:10;;;;;;;;;;;;;;;27.07;45.76;100229.48;1755088;80;21119;-40
2021/08/05 06:59:36;;;;;;;;;;;;;;;27.05;45.66;100222.05;1754979;80;21073;-39
2021/08/05 07:02:03;;;;;;;;;;;;;;;27.01;45.42;100223.98;1756712;80;20262;-39
2021/08/05 07:04:28;;;;;;;;;;;;;;;26.88;45.17;100217.58;1752343;80;20146;-39
2021/08/05 07:06:55;;;;;;;;;;;;;;;26.76;45.02;100215.77;1748352;80;20197;-39
2021/08/05 07:09:20;;;;;;;;;;;;;;;26.64;44.95;100207.02;1754996;80;21293;-42
2021/08/05 07:11:46;;;;;;;;;;;;;;;26.54;44.86;100211.81;1749199;80;20220;-40
2021/08/05 07:14:12;;;;;;;;;;;;;;;26.46;44.81;100210.66;1749328;80;20199;-40
2021/08/05 07:16:38;;;;;;;;;;;;;;;26.39;44.72;100204.38;1751449;80;20730;-40
2021/08/05 07:19:04;;;;;;;;;;;;;;;26.32;44.63;100205.05;1753027;80;20245;-40
2021/08/05 07:21:30;;;;;;;;;;;;;;;26.27;44.54;100203.95;1751585;80;21805;-40
2021/08/05 07:23:56;;;;;;;;;;;;;;;26.22;44.47;100197.31;1749613;80;20188;-40
2021/08/05 07:26:22;;;;;;;;;;;;;;;26.17;44.38;100196.77;1750199;80;20268;-40
2021/08/05 07:28:48;;;;;;;;;;;;;;;26.11;44.31;100192.07;1754294;80;20168;-39
2021/08/05 07:31:14;;;;;;;;;;;;;;;26.06;44.23;100188.19;1745718;80;20185;-40
2021/08/05 07:33:40;;;;;;;;;;;;;;;26.02;44.16;100176.75;1749356;80;21419;-39
2021/08/05 07:36:06;;;;;;;;;;;;;;;25.96;44.10;100175.45;1749677;80;20200;-40
2021/08/05 07:38:32;;;;;;;;;;;;;;;25.93;44.03;100171.41;1755271;80;20155;-40
2021/08/05 07:40:58;;;;;;;;;;;;;;;25.87;43.93;100172.90;1746608;80;20265;-40
2021/08/05 07:43:24;;;;;;;;;;;;;;;25.82;43.89;100173.19;1750738;80;20420;-40
2021/08/05 07:45:50;;;;;;;;;;;;;;;25.79;43.84;100166.39;1747223;80;21752;-40
2021/08/05 07:48:16;;;;;;;;;;;;;;;25.77;43.75;100166.52;1752817;80;20181;-40
2021/08/05 07:50:42;;;;;;;;;;;;;;;25.74;43.72;100165.28;1755989;80;20190;-40
2021/08/05 07:53:08;;;;;;;;;;;;;;;25.72;43.66;100162.63;1753111;80;20173;-40
2021/08/05 07:55:34;;;;;;;;;;;;;;;25.69;43.56;100155.02;1755596;80;20212;-39
2021/08/05 07:58:00;;;;;;;;;;;;;;;25.66;43.49;100151.58;1746113;80;21018;-40
2021/08/05 08:00:26;;;;;;;;;;;;;;;25.63;43.44;100151.71;1750723;80;20817;-40
2021/08/05 08:02:52;;;;;;;;;;;;;;;25.61;43.38;100156.05;1755440;80;20206;-40
2021/08/05 08:05:18;;;;;;;;;;;;;;;25.59;43.32;100148.66;1751927;80;20238;-40
2021/08/05 08:07:44;;;;;;;;;;;;;;;25.55;43.25;100158.31;1749843;80;20213;-40
2021/08/05 08:10:11;;;;;;;;;;;;;;;25.54;43.19;100151.73;1752286;80;21105;-40
2021/08/05 08:12:37;;;;;;;;;;;;;;;25.51;43.14;100156.59;1751396;80;20182;-40
2021/08/05 08:15:04;;;;;;;;;;;;;;;25.48;43.07;100153.97;1753807;80;20143;-39
2021/08/05 08:17:30;;;;;;;;;;;;;;;25.46;43.03;100158.50;1751032;80;20461;-39
2021/08/05 08:19:56;;;;;;;;;;;;;;;25.52;43.08;100156.82;1759100;80;20472;-40
2021/08/05 08:22:22;;;;;;;;;;;;;;;25.60;43.10;100153.84;1756404;80;21137;-39
2021/08/05 08:24:48;;;;;;;;;;;;;;;25.70;43.07;100148.28;1748883;80;20328;-40
2021/08/05 08:27:13;;;;;;;;;;;;;;;25.79;43.05;100144.67;1751356;80;20307;-40
2021/08/05 08:29:39;;;;;;;;;;;;;;;25.88;43.06;100142.47;1756355;80;20744;-40
2021/08/05 08:32:06;;;;;;;;;;;;;;;25.97;43.03;100140.84;1751673;80;20194;-40
2021/08/05 08:34:32;;;;;;;;;;;;;;;26.03;43.01;100133.18;1747071;80;21116;-40
2021/08/05 08:36:58;;;;;;;;;;;;;;;26.10;43.02;100133.30;1745105;80;20216;-40
2021/08/05 08:39:24;;;;;;;;;;;;;;;26.17;43.02;100122.88;1747890;80;20743;-40
2021/08/05 08:41:50;;;;;;;;;;;;;;;26.24;43.03;100131.39;1748337;80;20922;-39
2021/08/05 08:44:16;;;;;;;;;;;;;;;26.29;43.08;100126.31;1745205;80;20187;-40
2021/08/05 08:46:44;;;;;;;;;;;;;;;26.35;43.15;100119.23;1730618;80;20184;-40
2021/08/05 08:49:10;;;;;;;;;;;;;;;26.41;43.23;100114.73;1750247;80;20479;-40
2021/08/05 08:51:36;;;;;;;;;;;;;;;26.46;43.34;100107.45;1749524;80;20528;-40
2021/08/05 08:54:07;;;;;;;;;;;;;;;26.51;43.44;100105.16;1750197;80;21005;-40
2021/08/05 08:56:34;;;;;;;;;;;;;;;26.56;43.51;100106.83;1749997;80;20166;-39
2021/08/05 08:59:00;;;;;;;;;;;;;;;26.62;43.59;100110.89;1752087;80;21082;-42
2021/08/05 09:01:26;;;;;;;;;;;;;;;26.66;43.64;100101.98;1750160;80;20194;-39
2021/08/05 09:03:53;;;;;;;;;;;;;;;26.70;43.77;100100.86;1752952;80;20199;-39
2021/08/05 09:06:18;;;;;;;;;;;;;;;26.76;43.88;100092.98;1752922;80;20502;-39
2021/08/05 09:08:44;;;;;;;;;;;;;;;26.80;43.96;100084.06;1749804;80;20804;-39
2021/08/05 09:11:10;;;;;;;;;;;;;;;26.85;44.07;100076.80;1750648;80;21894;-39
2021/08/05 09:13:37;;;;;;;;;;;;;;;26.89;44.12;100073.46;1754504;80;20545;-40
2021/08/05 09:16:06;;;;;;;;;;;;;;;26.93;44.18;100072.11;1749584;80;20169;-39
2021/08/05 09:18:35;;;;;;;;;;;;;;;26.96;44.28;100070.75;1748156;80;20206;-40
2021/08/05 09:21:07;;;;;;;;;;;;;;;26.99;44.34;100069.98;1760561;80;20239;-39
2021/08/05 09:23:56;;;;;;;;;;;;;;;27.03;44.40;100064.48;1749100;80;21945;-39
2021/08/05 09:26:26;;;;;;;;;;;;;;;27.06;44.50;100065.11;1742960;80;20745;-39
2021/08/05 09:29:20;;;;;;;;;;;;;;;27.09;44.56;100065.15;1747872;80;20208;-39
2021/08/05 09:31:54;;;;;;;;;;;;;;;27.12;44.61;100062.98;1746669;80;20213;-39
2021/08/05 09:34:31;;;;;;;;;;;;;;;27.16;44.69;100056.05;1712072;81;20205;-40
2021/08/05 09:37:02;;;;;;;;;;;;;;;27.19;44.74;100055.30;1725295;81;22362;-39
2021/08/05 09:39:29;;;;;;;;;;;;;;;27.22;44.81;100053.14;1727830;81;20139;-39
2021/08/05 09:42:03;;;;;;;;;;;;;;;27.24;44.89;100049.39;1722468;81;20397;-40
2021/08/05 09:44:38;;;;;;;;;;;;;;;27.25;44.92;100042.59;1725940;81;20173;-40
2021/08/05 09:47:09;;;;;;;;;;;;;;;27.28;44.96;100039.06;1726982;81;20166;-39
2021/08/05 09:49:39;;;;;;;;;;;;;;;27.31;45.02;100039.69;1721512;81;21200;-41
2021/08/05 09:52:06;;;;;;;;;;;;;;;27.34;45.07;100039.50;1686362;83;20161;-40
2021/08/05 09:54:37;;;;;;;;;;;;;;;27.36;45.13;100034.35;1721723;81;20209;-39
2021/08/05 09:57:04;;;;;;;;;;;;;;;27.37;45.18;100018.59;1679627;82;20525;-39
2021/08/05 09:59:30;;;;;;;;;;;;;;;27.40;45.25;100024.02;1732207;80;20421;-39
2021/08/05 10:02:05;;;;;;;;;;;;;;;27.41;45.27;100016.66;1732347;80;21134;-39
2021/08/05 10:04:32;;;;;;;;;;;;;;;27.44;45.32;100010.89;1739349;81;20388;-40
2021/08/05 10:07:05;;;;;;;;;;;;;;;27.45;45.35;100004.93;1740627;81;20156;-39
2021/08/05 10:09:31;;;;;;;;;;;;;;;27.48;45.35;100001.39;1741476;81;21980;-39
2021/08/05 10:12:23;;;;;;;;;;;;;;;27.50;45.38;100003.78;1735974;81;20165;-39
2021/08/05 10:14:49;;;;;;;;;;;;;;;27.52;45.42;100002.82;1747638;80;21385;-39
2021/08/05 10:17:16;;;;;;;;;;;;;;;27.54;45.42;100001.23;1747282;80;20443;-39
2021/08/05 10:19:44;;;;;;;;;;;;;;;27.58;45.44;99992.91;1750316;80;20166;-39
2021/08/05 10:22:12;;;;;;;;;;;;;;;27.59;45.47;99988.91;1744408;80;20242;-39
2021/08/05 10:24:39;;;;;;;;;;;;;;;27.62;45.46;99987.57;1743148;80;20149;-39
2021/08/05 10:27:06;;;;;;;;;;;;;;;27.64;45.46;99982.97;1751694;80;21169;-39
2021/08/05 10:29:33;;;;;;;;;;;;;;;27.65;45.47;99975.61;1749555;80;20416;-39
2021/08/05 10:32:00;;;;;;;;;;;;;;;27.67;45.49;99977.41;1740890;80;20223;-39
2021/08/05 10:34:25;;;;;;;;;;;;;;;27.69;45.52;99967.25;1743879;80;20202;-39
2021/08/05 10:36:52;;;;;;;;;;;;;;;27.71;45.50;99964.86;1745009;80;20205;-39
2021/08/05 10:39:18;;;;;;;;;;;;;;;27.73;45.50;99970.88;1744794;80;21184;-39
2021/08/05 10:41:44;;;;;;;;;;;;;;;27.74;45.51;99956.31;1745504;80;21081;-39
2021/08/05 10:44:10;;;;;;;;;;;;;;;27.77;45.52;99966.72;1744384;80;20399;-39
2021/08/05 10:46:36;;;;;;;;;;;;;;;27.79;45.52;99963.77;1738633;80;22291;-39
2021/08/05 10:49:05;;;;;;;;;;;;;;;27.81;45.52;99958.57;1718058;80;20322;-39
2021/08/05 10:51:35;;;;;;;;;;;;;;;27.82;45.53;99953.20;1743268;80;20436;-40
2021/08/05 10:54:01;;;;;;;;;;;;;;;27.85;45.53;99951.61;1742568;80;20164;-39
2021/08/05 10:56:30;;;;;;;;;;;;;;;27.86;45.54;99938.66;1741053;80;20167;-39
2021/08/05 10:59:09;;;;;;;;;;;;;;;27.88;45.53;99941.07;1741078;80;20209;-40
2021/08/05 11:01:55;;;;;;;;;;;;;;;27.90;45.55;99945.07;1747405;80;20146;-40
2021/08/05 11:04:41;;;;;;;;;;;;;;;27.92;45.55;99946.87;1742580;80;21233;-40
2021/08/05 11:07:27;;;;;;;;;;;;;;;27.94;45.53;99935.30;1733589;81;20365;-39
2021/08/05 11:10:16;;;;;;;;;;;;;;;27.95;45.50;99929.34;1741227;81;20142;-39
2021/08/05 11:13:09;;;;;;;;;;;;;;;27.97;45.53;99927.53;1731132;81;20531;-39
2021/08/05 11:15:39;;;;;;;;;;;;;;;27.97;45.54;99928.34;1585952;89;20236;-40
2021/08/05 11:18:20;;;;;;;;;;;;;;;27.99;45.55;99925.16;1685254;82;21210;-39
2021/08/05 11:20:52;;;;;;;;;;;;;;;28.01;45.56;99919.97;1723140;82;20143;-40
2021/08/05 11:23:35;;;;;;;;;;;;;;;28.02;45.56;99915.98;1714987;82;20219;-39
2021/08/05 11:26:02;;;;;;;;;;;;;;;28.03;45.57;99903.02;1716826;82;20147;-39
2021/08/05 11:28:34;;;;;;;;;;;;;;;28.05;45.60;99903.42;1735969;82;20099;-40
2021/08/05 11:31:07;;;;;;;;;;;;;;;28.06;45.61;99905.03;1719252;82;21164;-39
2021/08/05 11:33:57;;;;;;;;;;;;;;;28.07;45.61;99894.66;1714975;82;20531;-39
2021/08/05 11:36:36;;;;;;;;;;;;;;;28.09;45.65;99902.87;1720029;82;20191;-40
2021/08/05 11:39:19;;;;;;;;;;;;;;;28.11;45.65;99892.71;1724462;82;20138;-41
2021/08/05 11:41:58;;;;;;;;;;;;;;;28.12;45.66;99890.94;1728438;82;20155;-41
2021/08/05 11:44:32;;;;;;;;;;;;;;;28.14;45.65;99883.53;1700839;82;22167;-39
2021/08/05 11:47:08;;;;;;;;;;;;;;;28.16;45.69;99872.77;1723341;82;20221;-39
2021/08/05 11:49:36;;;;;;;;;;;;;;;28.17;45.70;99870.78;1719710;82;20147;-88
2021/08/05 11:52:17;;;;;;;;;;;;;;;28.20;45.71;99860.20;1720127;82;20718;-39
2021/08/05 11:54:53;;;;;;;;;;;;;;;28.20;45.72;99860.20;1721040;81;20211;-40
2021/08/05 11:57:20;;;;;;;;;;;;;;;28.22;45.73;99860.62;1725816;82;21188;-39
2021/08/05 11:59:53;;;;;;;;;;;;;;;28.23;45.75;99863.01;1714600;82;20248;-40
2021/08/05 12:02:21;;;;;;;;;;;;;;;28.26;45.77;99857.24;1727055;82;20296;-40
2021/08/05 12:04:47;;;;;;;;;;;;;;;28.27;45.77;99853.23;1750166;80;20169;-40
2021/08/05 12:07:24;;;;;;;;;;;;;;;28.28;45.80;99845.85;1753224;80;20425;-40
2021/08/05 12:09:57;;;;;;;;;;;;;;;28.30;45.81;99835.68;1750662;80;21741;-39
2021/08/05 12:12:24;;;;;;;;;;;;;;;28.31;45.82;99828.27;1749294;80;20407;-40
2021/08/05 12:14:55;;;;;;;;;;;;;;;28.33;45.84;99827.30;1749840;80;20187;-40
2021/08/05 12:17:35;;;;;;;;;;;;;;;28.34;45.84;99819.71;1753845;80;20681;-40
2021/08/05 12:20:10;;;;;;;;;;;;;;;28.35;45.84;99819.30;1755057;80;20188;-39
2021/08/05 12:22:45;;;;;;;;;;;;;;;28.37;45.85;99821.71;1734141;80;21148;-40
2021/08/05 12:25:49;;;;;;;;;;;;;;;28.40;45.86;99813.92;1754384;80;20236;-40
2021/08/05 12:28:09;;;;;;;;;;;;;;;28.41;45.86;99799.55;1753636;80;20133;-39
2021/08/05 12:30:40;;;;;;;;;;;;;;;28.43;45.86;99804.13;1753024;80;20308;-40
2021/08/05 12:33:10;;;;;;;;;;;;;;;28.44;45.88;99796.55;1748189;80;20143;-40
2021/08/05 12:35:36;;;;;;;;;;;;;;;28.45;45.87;99786.97;1747265;80;21171;-39
2021/08/05 12:38:10;;;;;;;;;;;;;;;28.46;45.89;99791.38;1753779;80;21710;-39
2021/08/05 12:40:41;;;;;;;;;;;;;;;28.48;45.89;99784.77;1753218;80;20186;-40
2021/08/05 12:43:09;;;;;;;;;;;;;;;28.49;45.90;99786.38;1747463;80;20544;-39